Time;durP1;ratioP1;P1;durP2;ratioP2;P2;SDS_P1;SDS_P2;PMS_P1;PMS_P2;Temp;Humidity;BMP_temperature;BMP_pressure;BME280_temperature;BME280_humidity;BME280_pressure;Samples;Min_cycle;Max_cycle;Signal;HPM_P1;HPM_P2
2021/06/18 00:00:25;;;;;;;14.98;7.30;;;26.20;99.90;;;;;;1830661;75;21153;-79
2021/06/18 00:02:52;;;;;;;10.45;7.30;;;26.20;99.90;;;;;;1864256;76;21171;-80
2021/06/18 00:05:20;;;;;;;11.05;7.47;;;26.20;99.90;;;;;;1881200;76;21123;-79
2021/06/18 00:07:49;;;;;;;13.20;7.60;;;26.20;99.90;;;;;;1874093;76;21101;-81
2021/06/18 00:10:20;;;;;;;11.78;7.62;;;26.20;99.90;;;;;;1875111;75;21159;-80
2021/06/18 00:12:48;;;;;;;12.88;8.38;;;26.20;99.90;;;;;;1888616;76;21049;-80
2021/06/18 00:15:16;;;;;;;13.90;9.10;;;26.10;99.90;;;;;;1887154;76;21501;-80
2021/06/18 00:17:44;;;;;;;10.93;7.55;;;26.20;99.90;;;;;;1879024;76;21136;-80
2021/06/18 00:20:12;;;;;;;13.90;8.70;;;26.20;99.90;;;;;;1880719;74;21146;-80
2021/06/18 00:22:41;;;;;;;12.63;8.43;;;26.10;99.90;;;;;;1887101;76;21073;-80
2021/06/18 00:25:09;;;;;;;13.95;8.38;;;26.20;99.90;;;;;;1888802;76;21150;-80
2021/06/18 00:27:37;;;;;;;13.32;8.33;;;26.20;99.90;;;;;;1840966;77;21082;-80
2021/06/18 00:30:09;;;;;;;14.70;8.18;;;26.20;99.90;;;;;;1822095;77;21108;-80
2021/06/18 00:32:36;;;;;;;12.60;7.78;;;26.10;99.90;;;;;;1825162;76;21106;-80
2021/06/18 00:35:04;;;;;;;10.13;8.10;;;26.10;99.90;;;;;;1857956;77;21042;-80
2021/06/18 00:37:33;;;;;;;14.55;9.43;;;26.10;99.90;;;;;;1865845;76;21166;-80
2021/06/18 00:40:00;;;;;;;14.00;9.33;;;26.10;99.90;;;;;;1855073;76;21116;-80
2021/06/18 00:42:29;;;;;;;15.83;9.38;;;26.10;99.90;;;;;;1854435;76;21060;-80
2021/06/18 00:44:57;;;;;;;14.25;9.35;;;26.10;99.90;;;;;;1854101;76;21125;-80
2021/06/18 00:47:25;;;;;;;13.30;9.13;;;26.00;99.90;;;;;;1830908;76;21064;-80
2021/06/18 00:49:54;;;;;;;17.45;9.43;;;26.00;99.90;;;;;;1854838;77;21666;-82
2021/06/18 00:52:23;;;;;;;16.87;10.45;;;26.00;99.90;;;;;;1855632;76;21202;-82
2021/06/18 00:54:52;;;;;;;13.55;9.35;;;26.00;99.90;;;;;;1854952;76;21056;-78
2021/06/18 00:57:19;;;;;;;16.25;10.78;;;26.00;99.90;;;;;;1854884;77;21353;-79
2021/06/18 00:59:47;;;;;;;18.07;10.45;;;25.90;99.90;;;;;;1854018;76;21420;-79
2021/06/18 01:02:15;;;;;;;20.17;10.30;;;25.90;99.90;;;;;;1830403;76;21235;-79
2021/06/18 01:04:43;;;;;;;16.87;10.80;;;25.90;99.90;;;;;;1868526;76;21495;-80
2021/06/18 01:07:14;;;;;;;15.48;9.45;;;25.80;99.90;;;;;;1873748;76;21117;-80
2021/06/18 01:09:53;;;;;;;19.65;10.70;;;25.80;99.90;;;;;;1853533;76;21131;-81
2021/06/18 01:12:23;;;;;;;16.07;10.15;;;25.80;99.90;;;;;;1877589;75;21704;-81
2021/06/18 01:15:02;;;;;;;17.25;10.90;;;25.80;99.90;;;;;;1852561;76;21044;-80
2021/06/18 01:17:33;;;;;;;17.37;10.72;;;25.80;99.90;;;;;;1853503;76;21529;-80
2021/06/18 01:20:18;;;;;;;17.20;11.18;;;25.80;99.90;;;;;;1853052;76;21079;-80
2021/06/18 01:22:48;;;;;;;17.87;9.95;;;25.80;99.90;;;;;;1852438;76;21579;-80
2021/06/18 01:25:24;;;;;;;15.10;10.25;;;25.80;99.90;;;;;;1862333;76;21080;-81
2021/06/18 01:27:58;;;;;;;12.37;10.65;;;25.70;99.90;;;;;;1869068;76;21056;-80
2021/06/18 01:30:27;;;;;;;20.55;11.60;;;25.70;99.90;;;;;;1855440;76;21020;-80
2021/06/18 01:33:07;;;;;;;15.32;10.53;;;25.60;99.90;;;;;;1855604;76;21046;-80
2021/06/18 01:35:46;;;;;;;18.05;10.70;;;25.60;99.90;;;;;;1873925;76;21050;-80
2021/06/18 01:38:16;;;;;;;17.25;10.95;;;25.70;99.90;;;;;;1832317;76;21100;-80
2021/06/18 01:40:45;;;;;;;15.05;10.72;;;25.60;99.90;;;;;;1855580;76;21146;-80
2021/06/18 01:43:14;;;;;;;21.27;12.30;;;25.60;99.90;;;;;;1825280;79;21522;-80
2021/06/18 01:45:44;;;;;;;17.98;13.35;;;25.60;99.90;;;;;;1836587;76;21062;-80
2021/06/18 01:48:13;;;;;;;17.27;11.80;;;25.50;99.90;;;;;;1830562;76;21566;-80
2021/06/18 01:50:42;;;;;;;18.62;12.53;;;25.50;99.90;;;;;;1845487;76;21079;-80
2021/06/18 01:53:12;;;;;;;17.42;12.95;;;25.50;99.90;;;;;;1835890;76;21108;-80
2021/06/18 01:55:42;;;;;;;18.77;13.53;;;25.50;99.90;;;;;;1855038;76;21123;-80
2021/06/18 01:58:12;;;;;;;21.20;14.05;;;25.50;99.90;;;;;;1855190;76;21127;-81
2021/06/18 02:00:43;;;;;;;22.10;13.85;;;25.40;99.90;;;;;;1855179;76;21131;-80
2021/06/18 02:03:14;;;;;;;17.02;12.78;;;25.40;99.90;;;;;;1854993;76;21073;-80
2021/06/18 02:05:43;;;;;;;21.75;14.03;;;25.40;99.90;;;;;;1840962;76;21331;-80
2021/06/18 02:08:13;;;;;;;16.67;13.30;;;25.40;99.90;;;;;;1828178;76;21054;-80
2021/06/18 02:10:44;;;;;;;18.35;13.72;;;25.30;99.90;;;;;;1853172;76;21087;-82
2021/06/18 02:13:14;;;;;;;21.65;14.85;;;25.30;99.90;;;;;;1856102;77;21060;-80
2021/06/18 02:15:44;;;;;;;19.65;14.00;;;25.30;99.90;;;;;;1854631;76;21115;-80
2021/06/18 02:18:14;;;;;;;21.87;14.13;;;25.30;99.90;;;;;;1855015;76;21061;-80
2021/06/18 02:20:44;;;;;;;18.45;14.33;;;25.30;99.90;;;;;;1854878;76;21120;-80
2021/06/18 02:23:12;;;;;;;19.98;14.28;;;25.20;99.90;;;;;;1854955;77;21084;-80
2021/06/18 02:25:40;;;;;;;16.07;12.80;;;25.20;99.90;;;;;;1855250;76;21137;-80
2021/06/18 02:28:09;;;;;;;17.02;12.45;;;25.20;99.90;;;;;;1856033;76;21148;-80
2021/06/18 02:30:37;;;;;;;20.25;13.30;;;25.20;99.90;;;;;;1845794;76;21571;-80
2021/06/18 02:33:11;;;;;;;19.55;14.30;;;25.10;99.90;;;;;;1843122;76;21194;-80
2021/06/18 02:35:35;;;;;;;19.77;14.18;;;25.10;99.90;;;;;;1854296;76;21138;-80
2021/06/18 02:38:03;;;;;;;18.40;14.55;;;25.10;99.90;;;;;;1855492;77;21457;-80
2021/06/18 02:40:30;;;;;;;18.02;13.70;;;25.10;99.90;;;;;;1855079;76;21221;-80
2021/06/18 02:42:58;;;;;;;19.80;14.43;;;25.00;99.90;;;;;;1855056;76;21114;-80
2021/06/18 02:45:25;;;;;;;19.48;14.18;;;25.00;99.90;;;;;;1870551;76;21096;-80
2021/06/18 02:48:17;;;;;;;19.12;14.30;;;25.00;99.90;;;;;;1856557;76;21143;-80
2021/06/18 02:50:59;;;;;;;20.10;15.23;;;24.90;99.90;;;;;;1851526;76;21149;-79
2021/06/18 02:53:30;;;;;;;19.95;15.35;;;24.90;99.90;;;;;;1822769;77;21113;-79
2021/06/18 02:56:17;;;;;;;22.77;16.42;;;24.90;99.90;;;;;;1865207;76;21178;-79
2021/06/18 02:58:53;;;;;;;21.87;16.55;;;24.90;99.90;;;;;;1884623;76;21128;-79
2021/06/18 03:01:23;;;;;;;22.13;17.82;;;24.80;99.90;;;;;;1858415;76;21211;-79
2021/06/18 03:03:54;;;;;;;19.55;16.80;;;24.70;99.90;;;;;;1831774;76;21591;-79
2021/06/18 03:06:23;;;;;;;20.92;16.48;;;24.70;99.90;;;;;;1851423;76;21116;-80
2021/06/18 03:09:01;;;;;;;23.73;17.35;;;24.70;99.90;;;;;;1864577;76;21068;-80
2021/06/18 03:11:31;;;;;;;23.62;18.07;;;24.70;99.90;;;;;;1852788;76;21582;-80
2021/06/18 03:14:01;;;;;;;22.10;17.40;;;24.70;99.90;;;;;;1852506;76;21154;-78
2021/06/18 03:16:31;;;;;;;25.20;18.42;;;24.70;99.90;;;;;;1853125;76;21592;-78
2021/06/18 03:19:02;;;;;;;21.70;16.77;;;24.70;99.90;;;;;;1873570;76;21184;-79
2021/06/18 03:21:32;;;;;;;22.60;18.32;;;24.60;99.90;;;;;;1853168;76;21584;-79
2021/06/18 03:24:03;;;;;;;25.82;18.60;;;24.60;99.90;;;;;;1852592;76;21077;-79
2021/06/18 03:26:31;;;;;;;24.30;18.45;;;24.60;99.90;;;;;;1858643;76;21134;-78
2021/06/18 03:29:00;;;;;;;27.35;18.98;;;24.60;99.90;;;;;;1858964;76;21112;-78
2021/06/18 03:31:28;;;;;;;25.35;18.23;;;24.60;99.90;;;;;;1852611;76;21127;-78
2021/06/18 03:33:57;;;;;;;25.92;19.00;;;24.50;99.90;;;;;;1852977;76;21051;-79
2021/06/18 03:36:26;;;;;;;21.52;18.87;;;24.60;99.90;;;;;;1852981;76;21104;-79
2021/06/18 03:38:54;;;;;;;23.85;18.70;;;24.50;99.90;;;;;;1853083;76;21091;-78
2021/06/18 03:41:23;;;;;;;23.92;19.42;;;24.60;99.90;;;;;;1843064;76;21152;-79
2021/06/18 03:43:52;;;;;;;24.63;19.70;;;24.50;99.90;;;;;;1852729;76;21209;-79
2021/06/18 03:46:21;;;;;;;25.00;19.07;;;24.50;99.90;;;;;;1853436;77;21120;-79
2021/06/18 03:48:49;;;;;;;25.20;19.60;;;24.50;99.90;;;;;;1841385;76;21056;-80
2021/06/18 03:51:17;;;;;;;25.00;18.98;;;24.50;99.90;;;;;;1855343;76;21182;-80
2021/06/18 03:53:44;;;;;;;25.97;21.27;;;24.50;99.90;;;;;;1855331;76;21153;-79
2021/06/18 03:56:12;;;;;;;28.10;22.27;;;24.50;99.90;;;;;;1871725;76;21179;-79
2021/06/18 03:58:41;;;;;;;32.00;24.92;;;24.50;99.90;;;;;;1866368;76;22131;-79
2021/06/18 04:01:17;;;;;;;29.00;23.87;;;24.60;99.90;;;;;;1857390;76;21143;-80
2021/06/18 04:03:47;;;;;;;29.87;24.52;;;24.60;99.90;;;;;;1855769;76;21197;-80
2021/06/18 04:06:16;;;;;;;30.85;25.25;;;24.60;99.90;;;;;;1855053;76;21095;-80
2021/06/18 04:08:44;;;;;;;33.10;26.60;;;24.60;99.90;;;;;;1856016;77;21518;-81
2021/06/18 04:11:12;;;;;;;33.55;26.40;;;24.70;99.90;;;;;;1855676;76;21075;-81
2021/06/18 04:13:41;;;;;;;30.85;26.35;;;24.70;99.90;;;;;;1856010;76;21068;-80
2021/06/18 04:16:11;;;;;;;34.15;26.40;;;24.70;99.90;;;;;;1855803;76;21036;-81
2021/06/18 04:18:44;;;;;;;37.83;28.15;;;24.80;99.90;;;;;;1880554;76;21034;-81
2021/06/18 04:21:18;;;;;;;34.73;27.32;;;24.80;99.90;;;;;;1855236;76;21088;-80
2021/06/18 04:23:45;;;;;;;39.58;26.97;;;24.80;99.90;;;;;;1853052;76;21030;-79
2021/06/18 04:26:13;;;;;;;35.65;27.32;;;24.80;99.90;;;;;;1855625;77;21027;-79
2021/06/18 04:28:42;;;;;;;35.38;27.07;;;24.80;99.90;;;;;;1855767;77;21144;-80
2021/06/18 04:31:09;;;;;;;32.78;27.52;;;24.80;99.90;;;;;;1850307;76;21162;-79
2021/06/18 04:33:37;;;;;;;36.85;27.65;;;24.90;99.90;;;;;;1855474;77;21050;-80
2021/06/18 04:36:05;;;;;;;37.33;27.50;;;24.80;99.90;;;;;;1856128;76;21032;-79
2021/06/18 04:38:33;;;;;;;34.70;28.32;;;24.80;99.90;;;;;;1855794;76;21135;-80
2021/06/18 04:41:13;;;;;;;39.20;29.35;;;24.80;99.90;;;;;;1855669;76;21080;-83
2021/06/18 04:43:40;;;;;;;37.23;30.20;;;24.90;99.90;;;;;;1886546;74;21115;-79
2021/06/18 04:46:08;;;;;;;39.03;29.92;;;24.90;99.90;;;;;;1887254;76;21206;-80
2021/06/18 04:48:36;;;;;;;33.67;28.23;;;24.90;99.90;;;;;;1885393;76;21069;-80
2021/06/18 04:51:04;;;;;;;36.15;29.70;;;24.90;99.90;;;;;;1876653;76;21174;-80
2021/06/18 04:53:32;;;;;;;37.93;30.77;;;24.90;99.90;;;;;;1905683;75;21109;-80
2021/06/18 04:56:02;;;;;;;37.28;30.90;;;24.90;99.90;;;;;;1885702;76;21181;-80
2021/06/18 04:58:31;;;;;;;38.67;29.92;;;24.90;99.90;;;;;;1868928;76;21103;-80
2021/06/18 05:00:59;;;;;;;35.98;30.43;;;24.90;99.90;;;;;;1876772;72;21112;-80
2021/06/18 05:03:26;;;;;;;40.83;31.37;;;24.90;99.90;;;;;;1880678;74;21162;-80
2021/06/18 05:05:54;;;;;;;41.05;31.90;;;25.00;99.90;;;;;;1871245;75;21124;-79
2021/06/18 05:08:22;;;;;;;40.75;34.35;;;25.00;99.90;;;;;;1888942;74;21157;-78
2021/06/18 05:10:49;;;;;;;45.83;34.67;;;25.00;99.90;;;;;;1906786;73;21041;-79
2021/06/18 05:13:17;;;;;;;41.95;33.80;;;25.00;99.90;;;;;;1880957;74;21547;-80
2021/06/18 05:15:44;;;;;;;48.92;36.00;;;25.10;99.90;;;;;;1886568;74;21488;-80
2021/06/18 05:18:12;;;;;;;39.98;33.23;;;25.00;99.90;;;;;;1887934;74;21042;-80
2021/06/18 05:20:39;;;;;;;53.15;37.67;;;25.10;99.90;;;;;;1882316;75;21587;-81
2021/06/18 05:23:07;;;;;;;42.88;37.20;;;25.10;99.90;;;;;;1881132;74;21202;-80
2021/06/18 05:25:34;;;;;;;44.67;36.98;;;25.10;99.90;;;;;;1884815;74;21081;-83
2021/06/18 05:28:02;;;;;;;46.50;36.50;;;25.10;99.90;;;;;;1878482;74;21092;-78
2021/06/18 05:30:29;;;;;;;43.42;34.80;;;25.10;99.90;;;;;;1863648;75;21579;-77
2021/06/18 05:32:57;;;;;;;42.20;34.30;;;25.10;99.90;;;;;;1908698;74;21097;-79
2021/06/18 05:35:24;;;;;;;40.60;33.92;;;25.10;99.90;;;;;;1882411;74;21044;-78
2021/06/18 05:37:53;;;;;;;45.60;34.58;;;25.10;99.90;;;;;;1886335;76;21536;-78
2021/06/18 05:40:21;;;;;;;43.42;33.25;;;25.10;99.90;;;;;;1878750;75;21109;-78
2021/06/18 05:42:48;;;;;;;40.03;32.15;;;25.10;99.90;;;;;;1850584;77;21234;-77
2021/06/18 05:45:16;;;;;;;44.33;33.70;;;25.20;99.90;;;;;;1877678;74;21163;-77
2021/06/18 05:47:45;;;;;;;38.75;33.73;;;25.20;99.90;;;;;;1891622;75;21233;-82
2021/06/18 05:50:13;;;;;;;42.38;35.40;;;25.20;99.90;;;;;;1891275;75;21176;-81
2021/06/18 05:52:40;;;;;;;43.17;34.13;;;25.20;99.90;;;;;;1886448;74;21191;-79
2021/06/18 05:55:08;;;;;;;41.90;34.92;;;25.30;99.90;;;;;;1887890;75;21204;-81
2021/06/18 05:57:38;;;;;;;47.60;35.43;;;25.30;99.90;;;;;;1883388;75;21120;-80
2021/06/18 06:00:07;;;;;;;43.15;33.30;;;25.30;99.90;;;;;;1890305;74;21149;-72
2021/06/18 06:02:34;;;;;;;39.88;34.33;;;25.40;99.90;;;;;;1893076;74;21212;-80
2021/06/18 06:05:02;;;;;;;45.52;36.25;;;25.40;99.90;;;;;;1910794;74;21472;-79
2021/06/18 06:07:29;;;;;;;44.83;34.65;;;25.40;99.90;;;;;;1887220;76;21117;-78
2021/06/18 06:09:57;;;;;;;42.90;34.60;;;25.40;99.90;;;;;;1884547;75;21050;-77
2021/06/18 06:12:24;;;;;;;42.60;35.73;;;25.50;99.90;;;;;;1887891;75;21678;-78
2021/06/18 06:14:52;;;;;;;46.48;36.00;;;25.50;99.90;;;;;;1891235;75;21524;-79
2021/06/18 06:17:19;;;;;;;44.10;33.63;;;25.50;99.90;;;;;;1885039;75;21102;-80
2021/06/18 06:19:48;;;;;;;42.23;34.75;;;25.60;99.90;;;;;;1891028;74;21105;-80
2021/06/18 06:22:16;;;;;;;45.98;36.38;;;25.60;99.90;;;;;;1888360;74;21230;-80
2021/06/18 06:24:44;;;;;;;42.90;34.43;;;25.50;99.90;;;;;;1889246;75;21179;-78
2021/06/18 06:27:11;;;;;;;43.80;33.70;;;25.60;99.90;;;;;;1883509;74;21081;-83
2021/06/18 06:29:39;;;;;;;39.83;31.23;;;25.60;99.90;;;;;;1877828;74;21046;-80
2021/06/18 06:32:06;;;;;;;40.98;29.92;;;25.70;99.90;;;;;;1881817;74;21502;-80
2021/06/18 06:34:34;;;;;;;40.52;29.63;;;25.70;99.90;;;;;;1883770;74;21107;-80
2021/06/18 06:37:01;;;;;;;33.85;28.17;;;25.80;99.90;;;;;;1883157;74;21658;-79
2021/06/18 06:39:29;;;;;;;38.50;30.05;;;25.80;99.90;;;;;;1877321;74;21721;-79
2021/06/18 06:41:56;;;;;;;38.17;28.07;;;25.80;99.90;;;;;;1879688;74;21069;-79
2021/06/18 06:44:24;;;;;;;31.65;26.30;;;25.90;99.90;;;;;;1883618;74;21552;-79
2021/06/18 06:46:51;;;;;;;34.38;27.22;;;25.90;99.90;;;;;;1879020;74;21673;-79
2021/06/18 06:49:19;;;;;;;34.08;27.50;;;26.00;99.90;;;;;;1882280;74;21127;-79
2021/06/18 06:51:46;;;;;;;34.35;27.10;;;26.00;99.90;;;;;;1882412;74;21114;-79
2021/06/18 06:54:14;;;;;;;33.63;25.17;;;26.10;99.90;;;;;;1880392;74;21228;-79
2021/06/18 06:56:41;;;;;;;31.90;25.45;;;26.10;99.90;;;;;;1883057;74;21653;-80
2021/06/18 06:59:09;;;;;;;36.58;26.57;;;26.10;99.90;;;;;;1874624;74;21152;-81
2021/06/18 07:01:36;;;;;;;30.57;25.85;;;26.20;99.90;;;;;;1870503;74;21142;-81
2021/06/18 07:04:04;;;;;;;29.20;23.02;;;26.20;99.90;;;;;;1879955;74;21172;-80
2021/06/18 07:06:33;;;;;;;31.65;21.15;;;26.20;99.90;;;;;;1884417;74;21173;-81
2021/06/18 07:09:01;;;;;;;26.73;19.85;;;26.30;99.90;;;;;;1882196;74;21214;-80
2021/06/18 07:11:28;;;;;;;26.45;19.55;;;26.40;99.90;;;;;;1881062;74;21728;-80
2021/06/18 07:13:55;;;;;;;23.45;18.67;;;26.40;99.90;;;;;;1885558;74;21506;-80
2021/06/18 07:16:24;;;;;;;25.62;19.50;;;26.50;99.90;;;;;;1882239;74;21203;-80
2021/06/18 07:18:54;;;;;;;24.35;18.95;;;26.50;99.90;;;;;;1879901;74;21401;-80
2021/06/18 07:21:22;;;;;;;25.23;19.57;;;26.50;99.90;;;;;;1882893;74;21142;-80
2021/06/18 07:23:50;;;;;;;28.00;21.05;;;26.50;99.90;;;;;;1879823;74;21083;-80
2021/06/18 07:26:17;;;;;;;26.07;19.50;;;26.60;99.90;;;;;;1881890;74;21098;-79
2021/06/18 07:28:45;;;;;;;27.77;19.48;;;26.60;99.90;;;;;;1876564;74;21490;-79
2021/06/18 07:31:12;;;;;;;30.95;18.80;;;26.70;99.90;;;;;;1883376;74;21199;-80
2021/06/18 07:33:40;;;;;;;23.47;16.00;;;26.60;99.90;;;;;;1876353;74;21169;-80
2021/06/18 07:36:07;;;;;;;23.80;17.32;;;26.70;99.90;;;;;;1879169;74;22055;-80
2021/06/18 07:38:35;;;;;;;24.70;18.73;;;26.80;99.90;;;;;;1883486;74;21228;-81
2021/06/18 07:41:03;;;;;;;26.10;18.92;;;26.80;99.90;;;;;;1881609;74;21138;-83
2021/06/18 07:43:31;;;;;;;25.52;19.57;;;26.80;99.90;;;;;;1872957;74;21111;-84
2021/06/18 07:45:58;;;;;;;26.75;19.90;;;26.80;99.90;;;;;;1881709;74;21144;-83
2021/06/18 07:48:27;;;;;;;25.23;20.23;;;26.80;99.90;;;;;;1883393;74;21043;-84
2021/06/18 07:50:54;;;;;;;24.23;18.30;;;26.80;99.90;;;;;;1878847;74;21141;-83
2021/06/18 07:53:22;;;;;;;27.87;17.20;;;26.90;99.90;;;;;;1885978;74;21101;-84
2021/06/18 07:55:52;;;;;;;24.15;16.73;;;26.90;99.90;;;;;;1884495;74;21217;-83
2021/06/18 07:58:19;;;;;;;22.85;17.05;;;26.90;99.90;;;;;;1886429;74;21208;-84
2021/06/18 08:00:46;;;;;;;25.25;17.30;;;27.00;99.90;;;;;;1889792;73;21059;-81
2021/06/18 08:03:14;;;;;;;29.07;18.02;;;27.00;99.90;;;;;;1886331;74;21600;-82
2021/06/18 08:05:41;;;;;;;21.02;15.68;;;27.00;99.90;;;;;;1880989;74;21215;-78
2021/06/18 08:08:09;;;;;;;19.65;15.25;;;27.00;99.90;;;;;;1879162;74;21101;-78
2021/06/18 08:10:36;;;;;;;27.27;16.25;;;27.10;99.90;;;;;;1879622;74;21114;-76
2021/06/18 08:13:04;;;;;;;21.42;16.45;;;27.10;99.90;;;;;;1881627;74;21166;-77
2021/06/18 08:15:31;;;;;;;20.75;14.95;;;27.20;99.90;;;;;;1877919;74;21544;-78
2021/06/18 08:17:59;;;;;;;26.77;15.00;;;27.20;99.90;;;;;;1887084;74;21204;-78
2021/06/18 08:20:27;;;;;;;20.48;14.33;;;27.20;99.90;;;;;;1884624;74;21368;-78
2021/06/18 08:22:56;;;;;;;21.42;15.28;;;27.30;99.90;;;;;;1881140;74;21206;-77
2021/06/18 08:25:23;;;;;;;18.15;13.85;;;27.30;99.90;;;;;;1883682;74;21208;-79
2021/06/18 08:27:51;;;;;;;21.70;14.05;;;27.30;99.90;;;;;;1877070;74;21160;-76
2021/06/18 08:30:20;;;;;;;20.37;14.00;;;27.30;99.90;;;;;;1883684;74;21165;-77
2021/06/18 08:32:48;;;;;;;25.35;15.00;;;27.40;99.90;;;;;;1876711;74;21148;-79
2021/06/18 08:35:15;;;;;;;19.73;12.93;;;27.40;99.90;;;;;;1883335;74;21114;-77
2021/06/18 08:37:43;;;;;;;19.10;12.73;;;27.40;99.90;;;;;;1881674;74;21150;-76
2021/06/18 08:40:12;;;;;;;21.75;11.25;;;27.40;99.90;;;;;;1886092;74;21187;-78
2021/06/18 08:42:41;;;;;;;15.10;12.07;;;27.50;99.90;;;;;;1879645;74;21150;-79
2021/06/18 08:45:09;;;;;;;19.70;12.82;;;27.60;99.90;;;;;;1882705;74;21083;-79
2021/06/18 08:47:37;;;;;;;18.50;13.85;;;27.60;99.90;;;;;;1881595;74;21173;-79
2021/06/18 08:50:06;;;;;;;22.67;12.40;;;27.60;99.90;;;;;;1880369;74;21185;-78
2021/06/18 08:52:40;;;;;;;18.65;13.05;;;27.60;99.90;;;;;;1878314;75;21196;-78
2021/06/18 08:55:09;;;;;;;19.07;12.00;;;27.60;99.90;;;;;;1882478;75;21145;-78
2021/06/18 08:57:37;;;;;;;20.82;13.08;;;27.60;99.90;;;;;;1884123;75;21169;-79
2021/06/18 09:00:05;;;;;;;18.77;11.97;;;27.70;99.90;;;;;;1883731;75;21567;-78
2021/06/18 09:02:33;;;;;;;16.80;11.63;;;27.80;99.90;;;;;;1883897;74;21230;-78
2021/06/18 09:05:09;;;;;;;16.07;11.33;;;27.80;99.90;;;;;;1882993;75;21190;-78
2021/06/18 09:07:54;;;;;;;19.70;11.25;;;27.90;99.90;;;;;;1879547;75;21086;-79
2021/06/18 09:10:41;;;;;;;18.35;11.68;;;27.90;99.90;;;;;;1887691;74;21435;-77
2021/06/18 09:13:20;;;;;;;15.28;9.60;;;28.00;99.90;;;;;;1886825;74;21109;-78
2021/06/18 09:15:58;;;;;;;22.05;12.45;;;28.00;99.90;;;;;;1880939;75;21585;-76
2021/06/18 09:18:37;;;;;;;22.73;11.33;;;28.00;99.90;;;;;;1881197;75;21109;-75
2021/06/18 09:21:14;;;;;;;19.23;10.00;;;28.10;99.90;;;;;;1881883;74;21156;-77
2021/06/18 09:23:47;;;;;;;14.35;9.40;;;28.20;99.90;;;;;;1878478;75;21102;-78
2021/06/18 09:26:21;;;;;;;17.70;10.55;;;28.20;99.90;;;;;;1875809;75;21172;-78
2021/06/18 09:29:06;;;;;;;16.30;9.00;;;28.30;99.90;;;;;;1879298;74;21738;-78
2021/06/18 09:31:59;;;;;;;16.90;10.78;;;28.30;99.90;;;;;;1879995;74;21062;-77
2021/06/18 09:37:35;;;;;;;13.45;9.38;;;28.30;99.90;;;;;;1882374;75;21239;-78
2021/06/18 09:40:17;;;;;;;15.93;9.93;;;28.40;99.90;;;;;;1882032;74;21548;-77
2021/06/18 09:42:56;;;;;;;15.23;9.20;;;28.40;99.90;;;;;;1879724;75;21109;-78
2021/06/18 09:45:29;;;;;;;18.10;9.55;;;28.50;99.90;;;;;;1884412;75;21071;-79
2021/06/18 09:48:12;;;;;;;16.65;9.73;;;28.50;99.90;;;;;;1878562;74;21564;-75
2021/06/18 09:50:42;;;;;;;15.68;9.88;;;28.60;99.90;;;;;;1883794;74;21110;-78
2021/06/18 09:53:21;;;;;;;16.30;9.80;;;28.70;99.90;;;;;;1882395;74;21082;-76
2021/06/18 09:56:03;;;;;;;13.88;8.08;;;28.80;99.90;;;;;;1880510;74;21160;-78
2021/06/18 09:58:38;;;;;;;16.75;8.65;;;28.90;99.90;;;;;;1875510;74;21163;-78
2021/06/18 10:01:22;;;;;;;12.15;7.55;;;28.90;99.90;;;;;;1882491;74;21083;-78
2021/06/18 10:04:10;;;;;;;14.83;8.35;;;29.00;99.90;;;;;;1882819;74;21117;-78
2021/06/18 10:06:39;;;;;;;10.98;7.87;;;29.00;99.90;;;;;;1880331;74;21070;-78
2021/06/18 10:09:09;;;;;;;17.30;11.45;;;29.00;99.90;;;;;;1882893;74;21115;-77
2021/06/18 10:11:45;;;;;;;19.20;12.88;;;29.00;99.90;;;;;;1881525;74;21193;-77
2021/06/18 10:14:08;;;;;;;19.67;12.43;;;29.10;99.90;;;;;;1881357;75;21097;-77
2021/06/18 10:16:36;;;;;;;16.12;10.48;;;29.10;99.90;;;;;;1879935;74;21003;-77
2021/06/18 10:19:04;;;;;;;22.62;13.32;;;29.30;99.90;;;;;;1883833;75;21082;-78
2021/06/18 10:21:34;;;;;;;21.62;12.05;;;29.20;99.90;;;;;;1886588;75;21142;-77
2021/06/18 10:24:05;;;;;;;16.12;10.90;;;29.30;99.90;;;;;;1882313;75;21108;-78
2021/06/18 10:26:33;;;;;;;15.65;11.28;;;29.30;99.90;;;;;;1874315;75;21108;-78
2021/06/18 10:29:02;;;;;;;16.67;12.43;;;29.40;99.90;;;;;;1883183;74;21095;-77
2021/06/18 10:31:32;;;;;;;23.85;15.58;;;29.50;99.90;;;;;;1887354;75;21517;-77
2021/06/18 10:34:18;;;;;;;19.37;13.85;;;29.50;99.90;;;;;;1879553;75;21071;-80
2021/06/18 10:36:44;;;;;;;27.10;12.70;;;29.40;99.90;;;;;;1883293;74;21094;-76
2021/06/18 10:39:17;;;;;;;22.55;16.05;;;29.40;99.90;;;;;;1880707;74;21162;-77
2021/06/18 10:41:52;;;;;;;23.25;14.15;;;29.40;99.90;;;;;;1883019;74;21185;-77
2021/06/18 10:44:42;;;;;;;23.07;12.53;;;29.40;99.90;;;;;;1876760;74;21580;-77
2021/06/18 10:47:30;;;;;;;20.80;13.65;;;29.50;99.90;;;;;;1877556;74;21175;-78
2021/06/18 10:49:58;;;;;;;19.00;11.38;;;29.50;99.90;;;;;;1877231;74;21147;-77
2021/06/18 10:52:28;;;;;;;18.32;14.73;;;29.50;99.90;;;;;;1880351;74;21127;-76
2021/06/18 10:55:01;;;;;;;18.07;11.40;;;29.60;99.90;;;;;;1884696;74;21363;-78
2021/06/18 10:57:30;;;;;;;18.32;12.00;;;29.70;99.90;;;;;;1882148;75;21184;-78
2021/06/18 11:00:02;;;;;;;17.95;11.97;;;29.80;99.90;;;;;;1883248;74;21101;-78
2021/06/18 11:02:33;;;;;;;15.28;11.22;;;29.90;99.90;;;;;;1881068;74;21208;-79
2021/06/18 11:05:06;;;;;;;20.35;10.60;;;30.00;99.90;;;;;;1882954;75;21681;-77
2021/06/18 11:07:38;;;;;;;16.85;11.00;;;30.10;99.90;;;;;;1878768;75;21512;-77
2021/06/18 11:10:09;;;;;;;21.48;11.80;;;30.10;99.90;;;;;;1879843;75;21211;-78
2021/06/18 11:12:39;;;;;;;17.65;12.70;;;30.20;99.90;;;;;;1877342;74;21656;-79
2021/06/18 11:15:16;;;;;;;18.00;11.33;;;30.20;99.90;;;;;;1876442;75;21383;-80
2021/06/18 11:17:53;;;;;;;21.42;10.75;;;30.20;99.90;;;;;;1879476;75;21106;-77
2021/06/18 11:20:26;;;;;;;16.07;9.80;;;30.30;99.90;;;;;;1883749;74;21170;-77
2021/06/18 11:23:16;;;;;;;12.28;9.53;;;30.40;99.90;;;;;;1879390;74;21082;-80
2021/06/18 11:25:47;;;;;;;16.00;9.73;;;30.50;99.90;;;;;;1881604;74;21148;-78
2021/06/18 11:28:25;;;;;;;15.15;9.20;;;30.60;99.90;;;;;;1886747;74;21109;-77
2021/06/18 11:31:14;;;;;;;17.62;9.48;;;30.70;99.90;;;;;;1883981;74;21161;-77
2021/06/18 11:33:50;;;;;;;15.05;9.05;;;30.70;99.90;;;;;;1878014;75;21183;-79
2021/06/18 11:36:23;;;;;;;14.18;10.53;;;30.70;99.90;;;;;;1887106;74;21710;-78
2021/06/18 11:38:52;;;;;;;17.17;10.05;;;30.70;99.90;;;;;;1883981;74;21290;-78
2021/06/18 11:41:21;;;;;;;18.37;10.43;;;30.80;99.90;;;;;;1898814;73;21105;-77
2021/06/18 11:43:55;;;;;;;15.65;9.25;;;30.90;99.90;;;;;;1883544;75;21165;-78
2021/06/18 11:46:27;;;;;;;12.35;7.97;;;30.90;99.90;;;;;;1880521;74;21279;-78
2021/06/18 11:49:01;;;;;;;18.00;8.73;;;31.00;99.90;;;;;;1881856;74;21163;-77
2021/06/18 11:51:29;;;;;;;12.45;7.72;;;31.00;99.90;;;;;;1881486;75;21190;-80
2021/06/18 11:53:57;;;;;;;;;;;31.00;99.90;;;;;;1887134;74;21081;-79
2021/06/18 11:56:30;;;;;;;14.85;8.73;;;31.10;99.90;;;;;;1886265;74;20167;-80
2021/06/18 11:58:57;;;;;;;15.28;9.25;;;31.10;99.90;;;;;;1897183;74;21063;-80
2021/06/18 12:01:31;;;;;;;13.65;9.63;;;31.20;99.90;;;;;;1891098;74;21510;-77
2021/06/18 12:04:01;;;;;;;18.15;10.95;;;31.20;99.90;;;;;;1890940;74;21226;-77
2021/06/18 12:06:30;;;;;;;11.57;8.45;;;31.10;99.90;;;;;;1886396;75;21125;-80
2021/06/18 12:09:00;;;;;;;13.15;8.60;;;31.20;99.90;;;;;;1889711;74;21055;-77
2021/06/18 12:11:37;;;;;;;12.45;7.10;;;31.20;99.90;;;;;;1890743;74;21431;-78
2021/06/18 12:14:06;;;;;;;15.75;7.90;;;31.30;99.90;;;;;;1888105;75;21196;-78
2021/06/18 12:16:39;;;;;;;10.90;6.75;;;31.40;99.90;;;;;;1878633;75;21183;-76
2021/06/18 12:19:29;;;;;;;17.10;7.50;;;31.40;99.90;;;;;;1890256;74;21099;-77
2021/06/18 12:22:10;;;;;;;10.88;6.62;;;31.40;99.90;;;;;;1888605;74;21097;-77
2021/06/18 12:24:41;;;;;;;11.55;6.80;;;31.40;99.90;;;;;;1888505;74;21090;-77
2021/06/18 12:27:11;;;;;;;13.28;8.05;;;31.50;99.90;;;;;;1881772;74;21049;-78
2021/06/18 12:29:42;;;;;;;14.07;7.15;;;31.50;99.90;;;;;;1886953;74;21152;-78
2021/06/18 12:32:10;;;;;;;10.23;6.83;;;31.60;99.90;;;;;;1886546;74;21131;-79
2021/06/18 12:34:41;;;;;;;12.20;7.40;;;31.70;99.90;;;;;;1889622;74;21093;-78
2021/06/18 12:37:09;;;;;;;15.50;7.97;;;31.70;99.90;;;;;;1882043;74;21597;-78
2021/06/18 12:40:04;;;;;;;13.13;7.50;;;31.80;99.90;;;;;;1886567;74;21583;-79
2021/06/18 12:42:50;;;;;;;11.95;6.80;;;31.90;99.90;;;;;;1879164;74;21187;-78
2021/06/18 12:45:20;;;;;;;10.43;7.40;;;31.90;99.90;;;;;;1882362;75;21139;-79
2021/06/18 12:47:50;;;;;;;12.05;8.05;;;31.90;99.90;;;;;;1885451;74;21615;-79
2021/06/18 12:50:35;;;;;;;17.50;7.35;;;32.00;99.90;;;;;;1885894;74;21083;-78